IRL241 EIWT-EGNS
Flight info
| Callsign | IRL241 |
|---|---|
| Flight time | N/A |
| Altitude | 3000 |
| Route | BOYNE DCT NOCAD DCT IOM |
| Aircraft | B06/L-SFG/C |
Departure
| Time | N/A |
|---|---|
| Airport | EIWT |
Arrival
| Time | 2026-04-09 21:40 |
|---|---|
| Airport | Isle of Man Airport (EGNS) |
| Time | Latitude | Longitude | Altitude | Speed | Heading |
|---|---|---|---|---|---|
| 2026-04-09 20:44 | 53.43050 | -6.26200 | 210 ft | 0 kts | 181° |
| 2026-04-09 20:53 | 53.43050 | -6.26212 | 226 ft | 7 kts | 312° |
| 2026-04-09 20:53 | 53.43094 | -6.26280 | 215 ft | 7 kts | 358° |
| 2026-04-09 20:53 | 53.43107 | -6.26280 | 211 ft | 0 kts | 2° |
| 2026-04-09 20:55 | 53.43115 | -6.26292 | 211 ft | 0 kts | 4° |
| 2026-04-09 20:56 | 53.43116 | -6.26290 | 211 ft | 0 kts | 11° |
| 2026-04-09 20:57 | 53.43118 | -6.26288 | 216 ft | 2 kts | 21° |
| 2026-04-09 20:57 | 53.43134 | -6.26265 | 225 ft | 5 kts | 177° |
| 2026-04-09 20:57 | 53.43166 | -6.26290 | 317 ft | 17 kts | 327° |
| 2026-04-09 20:58 | 53.43193 | -6.26405 | 417 ft | 24 kts | 215° |
| 2026-04-09 20:58 | 53.42973 | -6.26184 | 605 ft | 54 kts | 124° |
| 2026-04-09 20:58 | 53.42979 | -6.25509 | 680 ft | 63 kts | 73° |
| 2026-04-09 20:58 | 53.43088 | -6.24791 | 709 ft | 67 kts | 69° |
| 2026-04-09 20:59 | 53.43198 | -6.23817 | 972 ft | 93 kts | 81° |
| 2026-04-09 20:59 | 53.43270 | -6.22465 | 869 ft | 131 kts | 78° |
| 2026-04-09 20:59 | 53.43444 | -6.20915 | 840 ft | 137 kts | 71° |
| 2026-04-09 20:59 | 53.43759 | -6.19378 | 763 ft | 141 kts | 57° |
| 2026-04-09 21:00 | 53.44402 | -6.18132 | 627 ft | 139 kts | 34° |
| 2026-04-09 21:00 | 53.45078 | -6.17002 | 599 ft | 139 kts | 52° |
| 2026-04-09 21:00 | 53.45560 | -6.13822 | 820 ft | 142 kts | 77° |
| 2026-04-09 21:01 | 53.45731 | -6.12178 | 1058 ft | 146 kts | 75° |
| 2026-04-09 21:01 | 53.45919 | -6.10447 | 1175 ft | 158 kts | 76° |
| 2026-04-09 21:01 | 53.46102 | -6.08535 | 946 ft | 170 kts | 72° |
| 2026-04-09 21:01 | 53.46536 | -6.06736 | 801 ft | 164 kts | 51° |
| 2026-04-09 21:02 | 53.47332 | -6.05383 | 614 ft | 161 kts | 31° |
| 2026-04-09 21:02 | 53.48224 | -6.04374 | 548 ft | 144 kts | 25° |
| 2026-04-09 21:02 | 53.49088 | -6.03401 | 581 ft | 151 kts | 30° |
| 2026-04-09 21:02 | 53.49801 | -6.02043 | 535 ft | 160 kts | 54° |
| 2026-04-09 21:03 | 53.50154 | -6.00413 | 804 ft | 150 kts | 73° |
| 2026-04-09 21:03 | 53.50363 | -5.98678 | 1024 ft | 149 kts | 73° |
| 2026-04-09 21:03 | 53.50622 | -5.97014 | 1243 ft | 151 kts | 67° |
| 2026-04-09 21:03 | 53.50910 | -5.95385 | 1576 ft | 142 kts | 68° |
| 2026-04-09 21:04 | 53.51156 | -5.93741 | 1773 ft | 149 kts | 65° |
| 2026-04-09 21:04 | 53.51599 | -5.92188 | 1990 ft | 145 kts | 46° |
| 2026-04-09 21:04 | 53.52188 | -5.90829 | 2165 ft | 144 kts | 40° |
| 2026-04-09 21:04 | 53.52856 | -5.89658 | 2142 ft | 77 kts | 283° |
| 2026-04-09 21:05 | 53.52702 | -5.89989 | 627 ft | 112 kts | 175° |
| 2026-04-09 21:05 | 53.52515 | -5.89800 | 194 ft | 74 kts | 122° |
| 2026-04-09 21:05 | 53.52480 | -5.89704 | 1809 ft | 57 kts | 164° |
| 2026-04-09 21:05 | 53.52383 | -5.89972 | 1370 ft | 39 kts | 282° |
| 2026-04-09 21:06 | 53.52690 | -5.89823 | 1236 ft | 78 kts | 19° |
| 2026-04-09 21:06 | 53.53116 | -5.89028 | 967 ft | 98 kts | 36° |
| 2026-04-09 21:06 | 53.53445 | -5.88248 | 1067 ft | 70 kts | 38° |
| 2026-04-09 21:06 | 53.53751 | -5.87737 | 1071 ft | 57 kts | 16° |
| 2026-04-09 21:07 | 53.54026 | -5.87298 | 1059 ft | 52 kts | 17° |
| 2026-04-09 21:07 | 53.54201 | -5.86700 | 812 ft | 102 kts | 93° |
| 2026-04-09 21:07 | 53.54051 | -5.85342 | 255 ft | 118 kts | 70° |
| 2026-04-09 21:07 | 53.54468 | -5.84207 | 174 ft | 125 kts | 39° |
| 2026-04-09 21:08 | 53.55163 | -5.83328 | 339 ft | 124 kts | 28° |
| 2026-04-09 21:08 | 53.55862 | -5.82440 | 454 ft | 138 kts | 29° |
| 2026-04-09 21:08 | 53.56665 | -5.81645 | 344 ft | 123 kts | 14° |
| 2026-04-09 21:08 | 53.57368 | -5.81154 | 613 ft | 102 kts | 12° |
| 2026-04-09 21:09 | 53.57882 | -5.80476 | 951 ft | 99 kts | 44° |
| 2026-04-09 21:09 | 53.58225 | -5.79291 | 727 ft | 141 kts | 57° |
| 2026-04-09 21:09 | 53.58923 | -5.78120 | 88 ft | 131 kts | 20° |
| 2026-04-09 21:09 | 53.59662 | -5.77480 | 500 ft | 109 kts | 22° |
| 2026-04-09 21:10 | 53.60345 | -5.76874 | 820 ft | 118 kts | 21° |
| 2026-04-09 21:10 | 53.61080 | -5.76221 | 1052 ft | 121 kts | 15° |
| 2026-04-09 21:10 | 53.61785 | -5.75404 | 1335 ft | 128 kts | 28° |
| 2026-04-09 21:10 | 53.62401 | -5.74310 | 1569 ft | 132 kts | 35° |
| 2026-04-09 21:11 | 53.63014 | -5.73128 | 1691 ft | 138 kts | 35° |
| 2026-04-09 21:11 | 53.63671 | -5.71891 | 1693 ft | 144 kts | 34° |
| 2026-04-09 21:11 | 53.64348 | -5.70613 | 1681 ft | 147 kts | 34° |
| 2026-04-09 21:11 | 53.65035 | -5.69313 | 1662 ft | 147 kts | 34° |
| 2026-04-09 21:12 | 53.65624 | -5.67876 | 1646 ft | 154 kts | 52° |
| 2026-04-09 21:12 | 53.66099 | -5.66265 | 1678 ft | 154 kts | 52° |
| 2026-04-09 21:12 | 53.66577 | -5.64640 | 1657 ft | 155 kts | 51° |
| 2026-04-09 21:12 | 53.67054 | -5.63008 | 1661 ft | 155 kts | 52° |
| 2026-04-09 21:13 | 53.67532 | -5.61384 | 1646 ft | 155 kts | 52° |
| 2026-04-09 21:13 | 53.68007 | -5.59757 | 1638 ft | 156 kts | 52° |
| 2026-04-09 21:13 | 53.68500 | -5.58137 | 1612 ft | 156 kts | 51° |
| 2026-04-09 21:13 | 53.68977 | -5.56542 | 1762 ft | 153 kts | 51° |
| 2026-04-09 21:14 | 53.69453 | -5.54922 | 1871 ft | 152 kts | 52° |
| 2026-04-09 21:14 | 53.69934 | -5.53311 | 1938 ft | 154 kts | 51° |
| 2026-04-09 21:14 | 53.70425 | -5.51656 | 1933 ft | 159 kts | 51° |
| 2026-04-09 21:14 | 53.70915 | -5.49990 | 1948 ft | 158 kts | 51° |
| 2026-04-09 21:15 | 53.71413 | -5.48310 | 1938 ft | 161 kts | 51° |
| 2026-04-09 21:15 | 53.71917 | -5.46642 | 1961 ft | 160 kts | 50° |
| 2026-04-09 21:15 | 53.72449 | -5.44991 | 1987 ft | 159 kts | 48° |
| 2026-04-09 21:15 | 53.72984 | -5.43364 | 2000 ft | 160 kts | 47° |
| 2026-04-09 21:16 | 53.73515 | -5.41744 | 2035 ft | 157 kts | 47° |
| 2026-04-09 21:16 | 53.74049 | -5.40136 | 2069 ft | 156 kts | 48° |
| 2026-04-09 21:16 | 53.74588 | -5.38521 | 2048 ft | 157 kts | 47° |
| 2026-04-09 21:16 | 53.75137 | -5.36888 | 2050 ft | 157 kts | 48° |
| 2026-04-09 21:17 | 53.75669 | -5.35282 | 2063 ft | 160 kts | 47° |
| 2026-04-09 21:17 | 53.76202 | -5.33645 | 2068 ft | 160 kts | 49° |
| 2026-04-09 21:17 | 53.76744 | -5.32007 | 2077 ft | 158 kts | 49° |
| 2026-04-09 21:17 | 53.77276 | -5.30410 | 2091 ft | 157 kts | 49° |
| 2026-04-09 21:18 | 53.77816 | -5.28793 | 2106 ft | 157 kts | 49° |
| 2026-04-09 21:18 | 53.78365 | -5.27156 | 2084 ft | 160 kts | 49° |
| 2026-04-09 21:18 | 53.78931 | -5.25606 | 2104 ft | 158 kts | 43° |
| 2026-04-09 21:18 | 53.79546 | -5.24052 | 2079 ft | 159 kts | 44° |
| 2026-04-09 21:19 | 53.80170 | -5.22506 | 2055 ft | 160 kts | 43° |
| 2026-04-09 21:19 | 53.80790 | -5.20973 | 2019 ft | 160 kts | 43° |
| 2026-04-09 21:19 | 53.81414 | -5.19421 | 1993 ft | 159 kts | 43° |
| 2026-04-09 21:19 | 53.82031 | -5.17873 | 1975 ft | 158 kts | 43° |
| 2026-04-09 21:20 | 53.82660 | -5.16312 | 1819 ft | 164 kts | 43° |
| 2026-04-09 21:20 | 53.83295 | -5.14737 | 1754 ft | 158 kts | 44° |
| 2026-04-09 21:20 | 53.83912 | -5.13207 | 1735 ft | 156 kts | 43° |
| 2026-04-09 21:20 | 53.84513 | -5.11699 | 1739 ft | 146 kts | 43° |
| 2026-04-09 21:21 | 53.85032 | -5.10328 | 1676 ft | 150 kts | 42° |
| 2026-04-09 21:21 | 53.85560 | -5.08972 | 1625 ft | 132 kts | 44° |
| 2026-04-09 21:21 | 53.86106 | -5.07591 | 1390 ft | 138 kts | 43° |
| 2026-04-09 21:21 | 53.86591 | -5.06313 | 1506 ft | 128 kts | 45° |
| 2026-04-09 21:22 | 53.87024 | -5.04972 | 1482 ft | 130 kts | 48° |
| 2026-04-09 21:22 | 53.87445 | -5.03648 | 1551 ft | 128 kts | 49° |
| 2026-04-09 21:22 | 53.87873 | -5.02287 | 1554 ft | 130 kts | 48° |
| 2026-04-09 21:22 | 53.88297 | -5.00931 | 1562 ft | 131 kts | 49° |
| 2026-04-09 21:23 | 53.88723 | -4.99590 | 1567 ft | 131 kts | 48° |
| 2026-04-09 21:23 | 53.89147 | -4.98227 | 1567 ft | 130 kts | 48° |
| 2026-04-09 21:23 | 53.89576 | -4.96869 | 1566 ft | 129 kts | 48° |
| 2026-04-09 21:23 | 53.89994 | -4.95538 | 1559 ft | 129 kts | 49° |
| 2026-04-09 21:24 | 53.90413 | -4.94191 | 1575 ft | 128 kts | 48° |
| 2026-04-09 21:24 | 53.90829 | -4.92839 | 1584 ft | 129 kts | 48° |
| 2026-04-09 21:24 | 53.91246 | -4.91499 | 1587 ft | 130 kts | 48° |
| 2026-04-09 21:24 | 53.91668 | -4.90154 | 1627 ft | 125 kts | 48° |
| 2026-04-09 21:25 | 53.92066 | -4.88849 | 1675 ft | 127 kts | 48° |
| 2026-04-09 21:25 | 53.92497 | -4.87485 | 1633 ft | 130 kts | 49° |
| 2026-04-09 21:25 | 53.92921 | -4.86139 | 1647 ft | 130 kts | 48° |
| 2026-04-09 21:25 | 53.93346 | -4.84765 | 1642 ft | 131 kts | 48° |
| 2026-04-09 21:26 | 53.93772 | -4.83403 | 1635 ft | 131 kts | 47° |
| 2026-04-09 21:26 | 53.94199 | -4.82028 | 1623 ft | 131 kts | 47° |
| 2026-04-09 21:26 | 53.94416 | -4.80479 | 1571 ft | 142 kts | 82° |
| 2026-04-09 21:26 | 53.94347 | -4.78823 | 1606 ft | 137 kts | 79° |
| 2026-04-09 21:27 | 53.94570 | -4.77278 | 1598 ft | 133 kts | 62° |
| 2026-04-09 21:27 | 53.94835 | -4.75781 | 1602 ft | 133 kts | 61° |
| 2026-04-09 21:27 | 53.95103 | -4.74276 | 1599 ft | 134 kts | 61° |
| 2026-04-09 21:27 | 53.95378 | -4.72762 | 1603 ft | 135 kts | 61° |
| 2026-04-09 21:28 | 53.95651 | -4.71251 | 1601 ft | 135 kts | 61° |
| 2026-04-09 21:28 | 53.95923 | -4.69719 | 1604 ft | 135 kts | 61° |
| 2026-04-09 21:28 | 53.96198 | -4.68193 | 1612 ft | 135 kts | 62° |
| 2026-04-09 21:28 | 53.96472 | -4.66693 | 1605 ft | 135 kts | 61° |
| 2026-04-09 21:29 | 53.96753 | -4.65145 | 1601 ft | 135 kts | 60° |
| 2026-04-09 21:29 | 53.97019 | -4.63620 | 1604 ft | 135 kts | 62° |
| 2026-04-09 21:29 | 53.97297 | -4.62094 | 1600 ft | 133 kts | 57° |
| 2026-04-09 21:29 | 53.97850 | -4.61011 | 1610 ft | 116 kts | 21° |
| 2026-04-09 21:30 | 53.98481 | -4.60153 | 1623 ft | 118 kts | 23° |
| 2026-04-09 21:30 | 53.99114 | -4.59219 | 1613 ft | 120 kts | 25° |
| 2026-04-09 21:30 | 53.99730 | -4.58258 | 1614 ft | 120 kts | 26° |
| 2026-04-09 21:30 | 54.00341 | -4.57275 | 1601 ft | 121 kts | 27° |
| 2026-04-09 21:31 | 54.00950 | -4.56279 | 1604 ft | 122 kts | 27° |
| 2026-04-09 21:31 | 54.01554 | -4.55283 | 1605 ft | 122 kts | 28° |
| 2026-04-09 21:31 | 54.02168 | -4.54265 | 1595 ft | 123 kts | 28° |
| 2026-04-09 21:31 | 54.02777 | -4.53250 | 1600 ft | 122 kts | 28° |
| 2026-04-09 21:32 | 54.03381 | -4.52243 | 1595 ft | 122 kts | 28° |
| 2026-04-09 21:32 | 54.03987 | -4.51232 | 1597 ft | 122 kts | 28° |
| 2026-04-09 21:32 | 54.04590 | -4.50224 | 1599 ft | 121 kts | 27° |
| 2026-04-09 21:32 | 54.05193 | -4.49216 | 1598 ft | 122 kts | 28° |
| 2026-04-09 21:33 | 54.05793 | -4.48214 | 1592 ft | 122 kts | 28° |
| 2026-04-09 21:33 | 54.06403 | -4.47193 | 1598 ft | 122 kts | 27° |
| 2026-04-09 21:33 | 54.07010 | -4.46178 | 1592 ft | 122 kts | 28° |
| 2026-04-09 21:33 | 54.07617 | -4.45161 | 1591 ft | 122 kts | 28° |
| 2026-04-09 21:34 | 54.08217 | -4.44156 | 1592 ft | 121 kts | 28° |
| 2026-04-09 21:34 | 54.08816 | -4.43150 | 1589 ft | 122 kts | 28° |
| 2026-04-09 21:34 | 54.09426 | -4.42128 | 1588 ft | 121 kts | 29° |
| 2026-04-09 21:34 | 54.10045 | -4.41222 | 1584 ft | 112 kts | 11° |
| 2026-04-09 21:35 | 54.10746 | -4.41071 | 1586 ft | 95 kts | 334° |
| 2026-04-09 21:35 | 54.11233 | -4.41677 | 1571 ft | 87 kts | 292° |
| 2026-04-09 21:35 | 54.11163 | -4.42700 | 1580 ft | 94 kts | 250° |
| 2026-04-09 21:35 | 54.10860 | -4.43682 | 1604 ft | 93 kts | 253° |
| 2026-04-09 21:36 | 54.10621 | -4.44697 | 1603 ft | 92 kts | 257° |
| 2026-04-09 21:36 | 54.10433 | -4.45740 | 1586 ft | 92 kts | 261° |
| 2026-04-09 21:36 | 54.10275 | -4.46777 | 1589 ft | 90 kts | 261° |
| 2026-04-09 21:36 | 54.10132 | -4.47824 | 1578 ft | 90 kts | 262° |
| 2026-04-09 21:37 | 54.09996 | -4.48860 | 1585 ft | 89 kts | 263° |
| 2026-04-09 21:37 | 54.09865 | -4.49895 | 1588 ft | 89 kts | 263° |
| 2026-04-09 21:37 | 54.09735 | -4.50934 | 1597 ft | 89 kts | 262° |
| 2026-04-09 21:37 | 54.09607 | -4.51965 | 1577 ft | 91 kts | 262° |
| 2026-04-09 21:38 | 54.09468 | -4.53031 | 1438 ft | 94 kts | 260° |
| 2026-04-09 21:38 | 54.09324 | -4.54096 | 1273 ft | 84 kts | 260° |
| 2026-04-09 21:38 | 54.09194 | -4.55006 | 966 ft | 79 kts | 260° |
| 2026-04-09 21:38 | 54.09095 | -4.55796 | 899 ft | 60 kts | 264° |
| 2026-04-09 21:39 | 54.09029 | -4.56439 | 971 ft | 63 kts | 268° |
| 2026-04-09 21:39 | 54.08945 | -4.57260 | 1025 ft | 74 kts | 264° |
| 2026-04-09 21:39 | 54.08832 | -4.58190 | 845 ft | 93 kts | 261° |
| 2026-04-09 21:39 | 54.08675 | -4.59302 | 454 ft | 96 kts | 258° |
| 2026-04-09 21:40 | 54.08529 | -4.60350 | 185 ft | 86 kts | 258° |
| 2026-04-09 21:40 | 54.08445 | -4.61315 | 75 ft | 74 kts | 261° |
| 2026-04-09 21:40 | 54.08363 | -4.62050 | 58 ft | 54 kts | 262° |
| 2026-04-09 21:40 | 54.08288 | -4.62651 | 69 ft | 45 kts | 260° |
| 2026-04-09 21:41 | 54.08357 | -4.63009 | 74 ft | 22 kts | 295° |
| 2026-04-09 21:41 | 54.08378 | -4.63209 | 65 ft | 11 kts | 282° |
| 2026-04-09 21:41 | 54.08363 | -4.63382 | 76 ft | 16 kts | 269° |
| 2026-04-09 21:41 | 54.08350 | -4.63518 | 71 ft | 5 kts | 281° |
| 2026-04-09 21:42 | 54.08415 | -4.63592 | 52 ft | 5 kts | 356° |
| 2026-04-09 21:42 | 54.08416 | -4.63592 | 50 ft | 0 kts | 359° |
| 2026-04-09 21:43 | 54.08416 | -4.63590 | 51 ft | 0 kts | 18° |
| 2026-04-09 21:43 | 54.08448 | -4.63507 | 85 ft | 31 kts | 26° |
| 2026-04-09 21:43 | 54.08614 | -4.63130 | 126 ft | 32 kts | 44° |
| 2026-04-09 21:43 | 54.08653 | -4.63030 | 143 ft | 4 kts | 18° |
| 2026-04-09 21:44 | 54.08653 | -4.63017 | 133 ft | 4 kts | 5° |
| 2026-04-09 21:44 | 54.08577 | -4.63231 | 109 ft | 36 kts | 250° |
| 2026-04-09 21:44 | 54.08363 | -4.63519 | 69 ft | 23 kts | 289° |
| 2026-04-09 21:44 | 54.08375 | -4.63530 | 49 ft | 0 kts | 19° |